sensor_id;sensor_type;location;lat;lon;timestamp;P1;durP1;ratioP1;P2;durP2;ratioP2
39044;SDS011;52192;52.002;5.956;2024-03-06T00:00:14;10.27;;;4.90;;
39044;SDS011;52192;52.002;5.956;2024-03-06T00:02:40;7.00;;;4.55;;
39044;SDS011;52192;52.002;5.956;2024-03-06T00:05:06;8.88;;;5.00;;
39044;SDS011;52192;52.002;5.956;2024-03-06T00:07:33;10.77;;;5.20;;
39044;SDS011;52192;52.002;5.956;2024-03-06T00:09:58;13.05;;;6.53;;
39044;SDS011;52192;52.002;5.956;2024-03-06T00:12:24;9.13;;;5.10;;
39044;SDS011;52192;52.002;5.956;2024-03-06T00:14:50;10.05;;;5.70;;
39044;SDS011;52192;52.002;5.956;2024-03-06T00:17:16;8.93;;;4.85;;
39044;SDS011;52192;52.002;5.956;2024-03-06T00:19:42;9.70;;;4.53;;
39044;SDS011;52192;52.002;5.956;2024-03-06T00:22:09;8.60;;;5.15;;
39044;SDS011;52192;52.002;5.956;2024-03-06T00:24:35;8.55;;;4.07;;
39044;SDS011;52192;52.002;5.956;2024-03-06T00:27:01;7.43;;;4.28;;
39044;SDS011;52192;52.002;5.956;2024-03-06T00:29:29;8.40;;;4.68;;
39044;SDS011;52192;52.002;5.956;2024-03-06T00:31:56;6.82;;;4.35;;
39044;SDS011;52192;52.002;5.956;2024-03-06T00:34:22;9.63;;;5.28;;
39044;SDS011;52192;52.002;5.956;2024-03-06T00:36:48;6.20;;;4.05;;
39044;SDS011;52192;52.002;5.956;2024-03-06T00:39:14;7.22;;;4.78;;
39044;SDS011;52192;52.002;5.956;2024-03-06T00:41:40;5.95;;;3.20;;
39044;SDS011;52192;52.002;5.956;2024-03-06T00:44:07;7.20;;;4.65;;
39044;SDS011;52192;52.002;5.956;2024-03-06T00:46:33;8.63;;;5.38;;
39044;SDS011;52192;52.002;5.956;2024-03-06T00:48:59;7.80;;;4.55;;
39044;SDS011;52192;52.002;5.956;2024-03-06T00:51:25;8.18;;;4.28;;
39044;SDS011;52192;52.002;5.956;2024-03-06T00:53:51;8.88;;;4.93;;
39044;SDS011;52192;52.002;5.956;2024-03-06T00:56:17;8.23;;;5.20;;
39044;SDS011;52192;52.002;5.956;2024-03-06T00:58:42;8.43;;;5.07;;
39044;SDS011;52192;52.002;5.956;2024-03-06T01:01:08;9.10;;;4.85;;
39044;SDS011;52192;52.002;5.956;2024-03-06T01:03:34;9.98;;;4.30;;
39044;SDS011;52192;52.002;5.956;2024-03-06T01:06:00;5.95;;;4.15;;
39044;SDS011;52192;52.002;5.956;2024-03-06T01:08:26;9.02;;;4.90;;
39044;SDS011;52192;52.002;5.956;2024-03-06T01:10:53;8.43;;;4.15;;
39044;SDS011;52192;52.002;5.956;2024-03-06T01:13:20;7.70;;;4.53;;
39044;SDS011;52192;52.002;5.956;2024-03-06T01:15:46;8.70;;;3.65;;
39044;SDS011;52192;52.002;5.956;2024-03-06T01:18:12;9.55;;;4.10;;
39044;SDS011;52192;52.002;5.956;2024-03-06T01:20:38;7.47;;;4.95;;
39044;SDS011;52192;52.002;5.956;2024-03-06T01:23:05;8.55;;;5.07;;
39044;SDS011;52192;52.002;5.956;2024-03-06T01:25:32;8.70;;;4.57;;
39044;SDS011;52192;52.002;5.956;2024-03-06T01:27:57;8.25;;;4.50;;
39044;SDS011;52192;52.002;5.956;2024-03-06T01:30:23;11.30;;;5.10;;
39044;SDS011;52192;52.002;5.956;2024-03-06T01:32:49;6.68;;;3.90;;
39044;SDS011;52192;52.002;5.956;2024-03-06T01:35:16;7.72;;;4.10;;
39044;SDS011;52192;52.002;5.956;2024-03-06T01:37:42;8.23;;;4.25;;
39044;SDS011;52192;52.002;5.956;2024-03-06T01:40:08;8.80;;;5.30;;
39044;SDS011;52192;52.002;5.956;2024-03-06T01:42:35;8.82;;;4.63;;
39044;SDS011;52192;52.002;5.956;2024-03-06T01:45:02;6.82;;;3.90;;
39044;SDS011;52192;52.002;5.956;2024-03-06T01:47:29;7.57;;;4.32;;
39044;SDS011;52192;52.002;5.956;2024-03-06T01:49:55;9.45;;;3.97;;
39044;SDS011;52192;52.002;5.956;2024-03-06T01:52:21;7.40;;;4.55;;
39044;SDS011;52192;52.002;5.956;2024-03-06T01:54:48;5.35;;;3.40;;
39044;SDS011;52192;52.002;5.956;2024-03-06T01:57:15;7.80;;;4.22;;
39044;SDS011;52192;52.002;5.956;2024-03-06T01:59:43;9.05;;;5.18;;
39044;SDS011;52192;52.002;5.956;2024-03-06T02:02:09;11.07;;;5.38;;
39044;SDS011;52192;52.002;5.956;2024-03-06T02:04:38;8.60;;;4.18;;
39044;SDS011;52192;52.002;5.956;2024-03-06T02:07:08;7.70;;;4.88;;
39044;SDS011;52192;52.002;5.956;2024-03-06T02:09:37;7.88;;;4.70;;
39044;SDS011;52192;52.002;5.956;2024-03-06T02:12:05;8.40;;;5.72;;
39044;SDS011;52192;52.002;5.956;2024-03-06T02:14:37;8.05;;;4.93;;
39044;SDS011;52192;52.002;5.956;2024-03-06T02:17:04;11.77;;;5.35;;
39044;SDS011;52192;52.002;5.956;2024-03-06T02:19:40;9.73;;;5.28;;
39044;SDS011;52192;52.002;5.956;2024-03-06T02:22:07;18.50;;;5.80;;
39044;SDS011;52192;52.002;5.956;2024-03-06T02:24:33;9.18;;;5.10;;
39044;SDS011;52192;52.002;5.956;2024-03-06T02:27:00;12.38;;;5.18;;
39044;SDS011;52192;52.002;5.956;2024-03-06T02:29:26;11.98;;;6.53;;
39044;SDS011;52192;52.002;5.956;2024-03-06T02:31:52;10.50;;;5.88;;
39044;SDS011;52192;52.002;5.956;2024-03-06T02:34:17;7.05;;;4.13;;
39044;SDS011;52192;52.002;5.956;2024-03-06T02:36:44;9.02;;;5.20;;
39044;SDS011;52192;52.002;5.956;2024-03-06T02:39:10;8.25;;;3.92;;
39044;SDS011;52192;52.002;5.956;2024-03-06T02:41:36;8.43;;;5.30;;
39044;SDS011;52192;52.002;5.956;2024-03-06T02:44:02;7.40;;;4.88;;
39044;SDS011;52192;52.002;5.956;2024-03-06T02:46:29;11.05;;;5.15;;
39044;SDS011;52192;52.002;5.956;2024-03-06T02:48:55;9.45;;;4.70;;
39044;SDS011;52192;52.002;5.956;2024-03-06T02:51:21;11.68;;;6.00;;
39044;SDS011;52192;52.002;5.956;2024-03-06T02:53:47;9.38;;;4.90;;
39044;SDS011;52192;52.002;5.956;2024-03-06T02:56:17;11.57;;;6.20;;
39044;SDS011;52192;52.002;5.956;2024-03-06T02:58:44;9.93;;;5.70;;
39044;SDS011;52192;52.002;5.956;2024-03-06T03:01:11;8.02;;;5.47;;
39044;SDS011;52192;52.002;5.956;2024-03-06T03:03:40;9.27;;;5.03;;
39044;SDS011;52192;52.002;5.956;2024-03-06T03:06:07;9.23;;;4.88;;
39044;SDS011;52192;52.002;5.956;2024-03-06T03:08:33;8.57;;;5.50;;
39044;SDS011;52192;52.002;5.956;2024-03-06T03:10:59;11.07;;;6.28;;
39044;SDS011;52192;52.002;5.956;2024-03-06T03:13:24;9.25;;;5.85;;
39044;SDS011;52192;52.002;5.956;2024-03-06T03:15:50;7.57;;;4.75;;
39044;SDS011;52192;52.002;5.956;2024-03-06T03:18:16;8.77;;;5.60;;
39044;SDS011;52192;52.002;5.956;2024-03-06T03:20:43;9.15;;;5.03;;
39044;SDS011;52192;52.002;5.956;2024-03-06T03:23:09;10.18;;;5.10;;
39044;SDS011;52192;52.002;5.956;2024-03-06T03:25:39;11.75;;;4.78;;
39044;SDS011;52192;52.002;5.956;2024-03-06T03:28:06;10.85;;;4.93;;
39044;SDS011;52192;52.002;5.956;2024-03-06T03:30:32;12.15;;;5.38;;
39044;SDS011;52192;52.002;5.956;2024-03-06T03:32:58;12.35;;;5.80;;
39044;SDS011;52192;52.002;5.956;2024-03-06T03:35:24;8.60;;;5.70;;
39044;SDS011;52192;52.002;5.956;2024-03-06T03:37:51;10.32;;;6.30;;
39044;SDS011;52192;52.002;5.956;2024-03-06T03:40:17;9.00;;;5.45;;
39044;SDS011;52192;52.002;5.956;2024-03-06T03:42:43;8.45;;;4.95;;
39044;SDS011;52192;52.002;5.956;2024-03-06T03:45:09;10.10;;;4.80;;
39044;SDS011;52192;52.002;5.956;2024-03-06T03:47:36;10.57;;;5.53;;
39044;SDS011;52192;52.002;5.956;2024-03-06T03:50:02;7.93;;;5.15;;
39044;SDS011;52192;52.002;5.956;2024-03-06T03:52:29;8.35;;;5.28;;
39044;SDS011;52192;52.002;5.956;2024-03-06T03:54:55;7.97;;;5.32;;
39044;SDS011;52192;52.002;5.956;2024-03-06T03:57:21;9.07;;;5.13;;
39044;SDS011;52192;52.002;5.956;2024-03-06T03:59:47;9.05;;;4.43;;
39044;SDS011;52192;52.002;5.956;2024-03-06T04:02:13;7.43;;;4.63;;
39044;SDS011;52192;52.002;5.956;2024-03-06T04:04:39;9.57;;;4.88;;
39044;SDS011;52192;52.002;5.956;2024-03-06T04:07:05;7.63;;;4.68;;
39044;SDS011;52192;52.002;5.956;2024-03-06T04:09:34;7.50;;;4.20;;
39044;SDS011;52192;52.002;5.956;2024-03-06T04:12:04;8.23;;;5.03;;
39044;SDS011;52192;52.002;5.956;2024-03-06T04:14:30;12.20;;;4.50;;
39044;SDS011;52192;52.002;5.956;2024-03-06T04:16:56;8.27;;;5.05;;
39044;SDS011;52192;52.002;5.956;2024-03-06T04:19:22;8.05;;;4.82;;
39044;SDS011;52192;52.002;5.956;2024-03-06T04:21:48;8.63;;;3.58;;
39044;SDS011;52192;52.002;5.956;2024-03-06T04:24:14;11.20;;;5.78;;
39044;SDS011;52192;52.002;5.956;2024-03-06T04:26:40;8.20;;;4.32;;
39044;SDS011;52192;52.002;5.956;2024-03-06T04:29:06;9.70;;;4.93;;
39044;SDS011;52192;52.002;5.956;2024-03-06T04:31:32;6.85;;;3.60;;
39044;SDS011;52192;52.002;5.956;2024-03-06T04:33:58;9.40;;;4.72;;
39044;SDS011;52192;52.002;5.956;2024-03-06T04:36:23;9.55;;;4.75;;
39044;SDS011;52192;52.002;5.956;2024-03-06T04:38:49;7.43;;;4.00;;
39044;SDS011;52192;52.002;5.956;2024-03-06T04:41:18;8.25;;;4.75;;
39044;SDS011;52192;52.002;5.956;2024-03-06T04:43:44;6.10;;;4.07;;
39044;SDS011;52192;52.002;5.956;2024-03-06T04:46:13;8.35;;;4.70;;
39044;SDS011;52192;52.002;5.956;2024-03-06T04:48:39;11.15;;;5.40;;
39044;SDS011;52192;52.002;5.956;2024-03-06T04:51:06;11.77;;;5.28;;
39044;SDS011;52192;52.002;5.956;2024-03-06T04:53:32;7.97;;;5.15;;
39044;SDS011;52192;52.002;5.956;2024-03-06T04:55:57;7.75;;;4.53;;
39044;SDS011;52192;52.002;5.956;2024-03-06T04:58:23;8.48;;;4.22;;
39044;SDS011;52192;52.002;5.956;2024-03-06T05:00:49;9.00;;;5.38;;
39044;SDS011;52192;52.002;5.956;2024-03-06T05:03:15;8.60;;;5.22;;
39044;SDS011;52192;52.002;5.956;2024-03-06T05:05:41;7.38;;;4.53;;
39044;SDS011;52192;52.002;5.956;2024-03-06T05:08:07;6.68;;;4.45;;
39044;SDS011;52192;52.002;5.956;2024-03-06T05:10:35;9.75;;;5.30;;
39044;SDS011;52192;52.002;5.956;2024-03-06T05:13:01;9.38;;;5.40;;
39044;SDS011;52192;52.002;5.956;2024-03-06T05:15:27;7.60;;;4.50;;
39044;SDS011;52192;52.002;5.956;2024-03-06T05:17:53;8.52;;;5.28;;
39044;SDS011;52192;52.002;5.956;2024-03-06T05:20:21;11.60;;;5.43;;
39044;SDS011;52192;52.002;5.956;2024-03-06T05:22:46;8.00;;;4.57;;
39044;SDS011;52192;52.002;5.956;2024-03-06T05:25:12;6.93;;;4.40;;
39044;SDS011;52192;52.002;5.956;2024-03-06T05:27:38;9.57;;;5.47;;
39044;SDS011;52192;52.002;5.956;2024-03-06T05:30:04;7.10;;;3.92;;
39044;SDS011;52192;52.002;5.956;2024-03-06T05:32:30;10.68;;;5.47;;
39044;SDS011;52192;52.002;5.956;2024-03-06T05:34:56;10.52;;;5.95;;
39044;SDS011;52192;52.002;5.956;2024-03-06T05:37:23;24.52;;;7.05;;
39044;SDS011;52192;52.002;5.956;2024-03-06T05:39:49;13.10;;;6.40;;
39044;SDS011;52192;52.002;5.956;2024-03-06T05:42:14;25.30;;;7.03;;
39044;SDS011;52192;52.002;5.956;2024-03-06T05:44:41;41.50;;;8.38;;
39044;SDS011;52192;52.002;5.956;2024-03-06T05:47:06;82.85;;;9.65;;
39044;SDS011;52192;52.002;5.956;2024-03-06T05:49:32;39.00;;;8.95;;
39044;SDS011;52192;52.002;5.956;2024-03-06T05:51:59;80.20;;;8.93;;
39044;SDS011;52192;52.002;5.956;2024-03-06T05:54:25;44.97;;;6.75;;
39044;SDS011;52192;52.002;5.956;2024-03-06T05:56:52;58.40;;;8.38;;
39044;SDS011;52192;52.002;5.956;2024-03-06T05:59:18;131.65;;;8.50;;
39044;SDS011;52192;52.002;5.956;2024-03-06T06:01:44;34.55;;;5.88;;
39044;SDS011;52192;52.002;5.956;2024-03-06T06:04:11;60.38;;;6.38;;
39044;SDS011;52192;52.002;5.956;2024-03-06T06:06:38;31.85;;;6.35;;
39044;SDS011;52192;52.002;5.956;2024-03-06T06:09:04;42.67;;;6.95;;
39044;SDS011;52192;52.002;5.956;2024-03-06T06:11:30;10.18;;;5.60;;
39044;SDS011;52192;52.002;5.956;2024-03-06T06:13:57;17.50;;;7.03;;
39044;SDS011;52192;52.002;5.956;2024-03-06T06:16:23;34.03;;;5.88;;
39044;SDS011;52192;52.002;5.956;2024-03-06T06:18:48;11.52;;;6.45;;
39044;SDS011;52192;52.002;5.956;2024-03-06T06:21:14;12.50;;;7.38;;
39044;SDS011;52192;52.002;5.956;2024-03-06T06:23:41;12.88;;;6.47;;
39044;SDS011;52192;52.002;5.956;2024-03-06T06:26:07;12.23;;;6.25;;
39044;SDS011;52192;52.002;5.956;2024-03-06T06:28:35;10.43;;;5.47;;
39044;SDS011;52192;52.002;5.956;2024-03-06T06:31:02;10.20;;;5.82;;
39044;SDS011;52192;52.002;5.956;2024-03-06T06:33:30;9.95;;;4.57;;
39044;SDS011;52192;52.002;5.956;2024-03-06T06:35:56;9.20;;;5.45;;
39044;SDS011;52192;52.002;5.956;2024-03-06T06:38:22;8.48;;;4.70;;
39044;SDS011;52192;52.002;5.956;2024-03-06T06:40:47;8.88;;;5.40;;
39044;SDS011;52192;52.002;5.956;2024-03-06T06:43:13;9.68;;;4.60;;
39044;SDS011;52192;52.002;5.956;2024-03-06T06:45:40;11.32;;;5.00;;
39044;SDS011;52192;52.002;5.956;2024-03-06T06:48:06;9.35;;;5.13;;
39044;SDS011;52192;52.002;5.956;2024-03-06T06:50:34;7.93;;;5.38;;
39044;SDS011;52192;52.002;5.956;2024-03-06T06:52:59;11.30;;;5.90;;
39044;SDS011;52192;52.002;5.956;2024-03-06T06:55:25;9.25;;;5.57;;
39044;SDS011;52192;52.002;5.956;2024-03-06T06:57:51;14.70;;;6.32;;
39044;SDS011;52192;52.002;5.956;2024-03-06T07:00:17;7.35;;;5.13;;
39044;SDS011;52192;52.002;5.956;2024-03-06T07:02:43;11.30;;;5.93;;
39044;SDS011;52192;52.002;5.956;2024-03-06T07:05:10;34.88;;;6.30;;
39044;SDS011;52192;52.002;5.956;2024-03-06T07:07:36;13.23;;;5.90;;
39044;SDS011;52192;52.002;5.956;2024-03-06T07:10:03;90.60;;;6.65;;
39044;SDS011;52192;52.002;5.956;2024-03-06T07:12:29;47.67;;;6.50;;
39044;SDS011;52192;52.002;5.956;2024-03-06T07:14:56;15.07;;;5.85;;
39044;SDS011;52192;52.002;5.956;2024-03-06T07:17:22;21.25;;;6.32;;
39044;SDS011;52192;52.002;5.956;2024-03-06T07:19:48;31.08;;;7.13;;
39044;SDS011;52192;52.002;5.956;2024-03-06T07:22:13;22.40;;;6.90;;
39044;SDS011;52192;52.002;5.956;2024-03-06T07:24:39;52.38;;;7.35;;
39044;SDS011;52192;52.002;5.956;2024-03-06T07:27:06;40.88;;;7.05;;
39044;SDS011;52192;52.002;5.956;2024-03-06T07:29:34;128.38;;;9.55;;
39044;SDS011;52192;52.002;5.956;2024-03-06T07:32:00;12.57;;;5.70;;
39044;SDS011;52192;52.002;5.956;2024-03-06T07:34:26;25.08;;;6.63;;
39044;SDS011;52192;52.002;5.956;2024-03-06T07:36:52;72.95;;;7.20;;
39044;SDS011;52192;52.002;5.956;2024-03-06T07:39:21;9.50;;;5.32;;
39044;SDS011;52192;52.002;5.956;2024-03-06T07:41:46;126.80;;;8.27;;
39044;SDS011;52192;52.002;5.956;2024-03-06T07:44:12;125.90;;;8.07;;
39044;SDS011;52192;52.002;5.956;2024-03-06T07:46:39;229.38;;;10.73;;
39044;SDS011;52192;52.002;5.956;2024-03-06T07:49:05;118.07;;;9.48;;
39044;SDS011;52192;52.002;5.956;2024-03-06T07:51:31;36.65;;;5.82;;
39044;SDS011;52192;52.002;5.956;2024-03-06T07:53:57;110.13;;;8.00;;
39044;SDS011;52192;52.002;5.956;2024-03-06T07:56:24;71.18;;;8.13;;
39044;SDS011;52192;52.002;5.956;2024-03-06T07:58:50;36.35;;;5.43;;
39044;SDS011;52192;52.002;5.956;2024-03-06T08:01:16;48.17;;;6.43;;
39044;SDS011;52192;52.002;5.956;2024-03-06T08:03:42;99.22;;;7.82;;
39044;SDS011;52192;52.002;5.956;2024-03-06T08:06:09;98.38;;;7.53;;
39044;SDS011;52192;52.002;5.956;2024-03-06T08:08:35;35.95;;;6.40;;
39044;SDS011;52192;52.002;5.956;2024-03-06T08:11:01;69.78;;;8.45;;
39044;SDS011;52192;52.002;5.956;2024-03-06T08:13:27;70.60;;;8.13;;
39044;SDS011;52192;52.002;5.956;2024-03-06T08:15:53;37.97;;;6.68;;
39044;SDS011;52192;52.002;5.956;2024-03-06T08:18:18;48.03;;;7.50;;
39044;SDS011;52192;52.002;5.956;2024-03-06T08:20:44;42.53;;;7.60;;
39044;SDS011;52192;52.002;5.956;2024-03-06T08:23:10;100.43;;;10.85;;
39044;SDS011;52192;52.002;5.956;2024-03-06T08:25:35;71.18;;;8.65;;
39044;SDS011;52192;52.002;5.956;2024-03-06T08:28:01;47.33;;;7.07;;
39044;SDS011;52192;52.002;5.956;2024-03-06T08:30:30;34.70;;;6.70;;
39044;SDS011;52192;52.002;5.956;2024-03-06T08:32:57;61.05;;;8.32;;
39044;SDS011;52192;52.002;5.956;2024-03-06T08:35:23;43.03;;;8.02;;
39044;SDS011;52192;52.002;5.956;2024-03-06T08:37:49;8.35;;;3.80;;
39044;SDS011;52192;52.002;5.956;2024-03-06T08:40:15;117.13;;;9.20;;
39044;SDS011;52192;52.002;5.956;2024-03-06T08:42:45;131.65;;;11.48;;
39044;SDS011;52192;52.002;5.956;2024-03-06T08:45:14;126.32;;;9.25;;
39044;SDS011;52192;52.002;5.956;2024-03-06T08:47:41;68.00;;;9.02;;
39044;SDS011;52192;52.002;5.956;2024-03-06T08:50:09;131.02;;;11.20;;
39044;SDS011;52192;52.002;5.956;2024-03-06T08:52:35;54.55;;;7.57;;
39044;SDS011;52192;52.002;5.956;2024-03-06T08:55:02;118.88;;;11.73;;
39044;SDS011;52192;52.002;5.956;2024-03-06T08:57:31;76.20;;;9.50;;
39044;SDS011;52192;52.002;5.956;2024-03-06T08:59:57;156.18;;;11.35;;
39044;SDS011;52192;52.002;5.956;2024-03-06T09:02:23;113.90;;;9.82;;
39044;SDS011;52192;52.002;5.956;2024-03-06T09:04:50;123.40;;;11.40;;
39044;SDS011;52192;52.002;5.956;2024-03-06T09:07:17;72.97;;;9.00;;
39044;SDS011;52192;52.002;5.956;2024-03-06T09:09:43;46.03;;;9.82;;
39044;SDS011;52192;52.002;5.956;2024-03-06T09:12:09;27.73;;;5.75;;
39044;SDS011;52192;52.002;5.956;2024-03-06T09:14:36;43.88;;;9.80;;
39044;SDS011;52192;52.002;5.956;2024-03-06T09:17:02;82.35;;;9.57;;
39044;SDS011;52192;52.002;5.956;2024-03-06T09:19:29;43.53;;;10.02;;
39044;SDS011;52192;52.002;5.956;2024-03-06T09:21:55;49.83;;;9.23;;
39044;SDS011;52192;52.002;5.956;2024-03-06T09:24:21;183.48;;;13.93;;
39044;SDS011;52192;52.002;5.956;2024-03-06T09:26:51;17.60;;;8.30;;
39044;SDS011;52192;52.002;5.956;2024-03-06T09:29:17;38.08;;;9.50;;
39044;SDS011;52192;52.002;5.956;2024-03-06T09:31:44;18.05;;;8.23;;
39044;SDS011;52192;52.002;5.956;2024-03-06T09:34:10;33.13;;;9.30;;
39044;SDS011;52192;52.002;5.956;2024-03-06T09:36:37;50.05;;;11.30;;
39044;SDS011;52192;52.002;5.956;2024-03-06T09:39:04;27.48;;;9.90;;
39044;SDS011;52192;52.002;5.956;2024-03-06T09:41:30;18.45;;;8.38;;
39044;SDS011;52192;52.002;5.956;2024-03-06T09:43:56;64.13;;;10.50;;
39044;SDS011;52192;52.002;5.956;2024-03-06T09:46:22;67.85;;;13.00;;
39044;SDS011;52192;52.002;5.956;2024-03-06T09:48:48;45.30;;;10.45;;
39044;SDS011;52192;52.002;5.956;2024-03-06T09:51:16;66.60;;;11.45;;
39044;SDS011;52192;52.002;5.956;2024-03-06T09:53:42;23.60;;;10.88;;
39044;SDS011;52192;52.002;5.956;2024-03-06T09:56:08;21.75;;;9.85;;
39044;SDS011;52192;52.002;5.956;2024-03-06T09:58:37;21.60;;;9.60;;
39044;SDS011;52192;52.002;5.956;2024-03-06T10:01:03;21.55;;;9.45;;
39044;SDS011;52192;52.002;5.956;2024-03-06T10:03:32;18.38;;;8.32;;
39044;SDS011;52192;52.002;5.956;2024-03-06T10:06:02;30.20;;;12.10;;
39044;SDS011;52192;52.002;5.956;2024-03-06T10:08:27;18.65;;;9.95;;
39044;SDS011;52192;52.002;5.956;2024-03-06T10:10:53;21.92;;;11.30;;
39044;SDS011;52192;52.002;5.956;2024-03-06T10:13:25;21.98;;;11.02;;
39044;SDS011;52192;52.002;5.956;2024-03-06T10:18:29;29.33;;;9.30;;
39044;SDS011;52192;52.002;5.956;2024-03-06T10:20:56;20.83;;;8.32;;
39044;SDS011;52192;52.002;5.956;2024-03-06T10:23:22;21.90;;;11.60;;
39044;SDS011;52192;52.002;5.956;2024-03-06T10:25:49;21.65;;;9.38;;
39044;SDS011;52192;52.002;5.956;2024-03-06T10:28:16;15.32;;;8.82;;
39044;SDS011;52192;52.002;5.956;2024-03-06T10:30:50;17.63;;;9.63;;
39044;SDS011;52192;52.002;5.956;2024-03-06T10:33:17;20.52;;;10.75;;
39044;SDS011;52192;52.002;5.956;2024-03-06T10:35:47;18.70;;;8.52;;
39044;SDS011;52192;52.002;5.956;2024-03-06T10:38:16;17.88;;;8.15;;
39044;SDS011;52192;52.002;5.956;2024-03-06T10:40:45;18.33;;;8.82;;
39044;SDS011;52192;52.002;5.956;2024-03-06T10:43:11;14.60;;;7.82;;
39044;SDS011;52192;52.002;5.956;2024-03-06T10:48:03;20.55;;;11.25;;
39044;SDS011;52192;52.002;5.956;2024-03-06T10:50:31;20.50;;;9.55;;
39044;SDS011;52192;52.002;5.956;2024-03-06T10:52:58;23.48;;;10.98;;
39044;SDS011;52192;52.002;5.956;2024-03-06T10:55:25;20.13;;;8.60;;
39044;SDS011;52192;52.002;5.956;2024-03-06T10:57:53;25.55;;;11.57;;
39044;SDS011;52192;52.002;5.956;2024-03-06T11:00:20;28.38;;;11.75;;
39044;SDS011;52192;52.002;5.956;2024-03-06T11:02:46;20.27;;;9.73;;
39044;SDS011;52192;52.002;5.956;2024-03-06T11:05:15;19.25;;;9.80;;
39044;SDS011;52192;52.002;5.956;2024-03-06T11:07:41;21.05;;;9.57;;
39044;SDS011;52192;52.002;5.956;2024-03-06T11:10:08;25.83;;;10.15;;
39044;SDS011;52192;52.002;5.956;2024-03-06T11:12:41;23.45;;;9.73;;
39044;SDS011;52192;52.002;5.956;2024-03-06T11:15:12;23.65;;;10.18;;
39044;SDS011;52192;52.002;5.956;2024-03-06T11:17:39;21.05;;;10.35;;
39044;SDS011;52192;52.002;5.956;2024-03-06T11:28:16;15.95;;;9.02;;
39044;SDS011;52192;52.002;5.956;2024-03-06T11:30:44;21.23;;;9.73;;
39044;SDS011;52192;52.002;5.956;2024-03-06T11:33:12;25.77;;;11.15;;
39044;SDS011;52192;52.002;5.956;2024-03-06T11:35:43;21.73;;;9.50;;
39044;SDS011;52192;52.002;5.956;2024-03-06T11:38:28;26.05;;;10.27;;
39044;SDS011;52192;52.002;5.956;2024-03-06T11:40:54;22.27;;;9.68;;
39044;SDS011;52192;52.002;5.956;2024-03-06T11:43:26;20.83;;;9.38;;
39044;SDS011;52192;52.002;5.956;2024-03-06T11:45:53;20.77;;;10.50;;
39044;SDS011;52192;52.002;5.956;2024-03-06T11:48:19;23.45;;;9.55;;
39044;SDS011;52192;52.002;5.956;2024-03-06T11:50:46;21.52;;;9.65;;
39044;SDS011;52192;52.002;5.956;2024-03-06T11:53:15;23.23;;;10.82;;
39044;SDS011;52192;52.002;5.956;2024-03-06T11:55:42;21.02;;;8.60;;
39044;SDS011;52192;52.002;5.956;2024-03-06T11:58:08;18.52;;;10.05;;
39044;SDS011;52192;52.002;5.956;2024-03-06T12:00:37;27.98;;;9.68;;
39044;SDS011;52192;52.002;5.956;2024-03-06T12:03:03;22.85;;;10.15;;
39044;SDS011;52192;52.002;5.956;2024-03-06T12:05:30;19.88;;;10.20;;
39044;SDS011;52192;52.002;5.956;2024-03-06T12:07:56;20.88;;;10.60;;
39044;SDS011;52192;52.002;5.956;2024-03-06T12:10:22;22.23;;;9.82;;
39044;SDS011;52192;52.002;5.956;2024-03-06T12:12:47;21.02;;;10.10;;
39044;SDS011;52192;52.002;5.956;2024-03-06T12:15:14;17.95;;;9.63;;
39044;SDS011;52192;52.002;5.956;2024-03-06T12:17:43;20.25;;;8.13;;
39044;SDS011;52192;52.002;5.956;2024-03-06T12:20:13;18.73;;;8.98;;
39044;SDS011;52192;52.002;5.956;2024-03-06T12:25:20;20.90;;;8.93;;
39044;SDS011;52192;52.002;5.956;2024-03-06T12:27:47;17.63;;;7.88;;
39044;SDS011;52192;52.002;5.956;2024-03-06T12:30:22;18.02;;;8.65;;
39044;SDS011;52192;52.002;5.956;2024-03-06T12:32:57;19.67;;;8.55;;
39044;SDS011;52192;52.002;5.956;2024-03-06T12:35:29;14.82;;;7.47;;
39044;SDS011;52192;52.002;5.956;2024-03-06T12:37:55;15.63;;;7.05;;
39044;SDS011;52192;52.002;5.956;2024-03-06T12:40:21;23.30;;;10.35;;
39044;SDS011;52192;52.002;5.956;2024-03-06T12:42:47;15.95;;;6.88;;
39044;SDS011;52192;52.002;5.956;2024-03-06T12:45:14;14.15;;;8.63;;
39044;SDS011;52192;52.002;5.956;2024-03-06T12:47:44;17.50;;;8.70;;
39044;SDS011;52192;52.002;5.956;2024-03-06T12:50:16;16.45;;;7.90;;
39044;SDS011;52192;52.002;5.956;2024-03-06T12:52:41;19.05;;;9.43;;
39044;SDS011;52192;52.002;5.956;2024-03-06T12:55:10;16.67;;;8.02;;
39044;SDS011;52192;52.002;5.956;2024-03-06T12:57:36;17.55;;;8.65;;
39044;SDS011;52192;52.002;5.956;2024-03-06T13:00:02;15.48;;;7.68;;
39044;SDS011;52192;52.002;5.956;2024-03-06T13:02:28;18.67;;;9.35;;
39044;SDS011;52192;52.002;5.956;2024-03-06T13:04:54;16.48;;;7.75;;
39044;SDS011;52192;52.002;5.956;2024-03-06T13:07:20;15.25;;;7.75;;
39044;SDS011;52192;52.002;5.956;2024-03-06T13:09:45;19.58;;;6.90;;
39044;SDS011;52192;52.002;5.956;2024-03-06T13:12:11;16.55;;;7.35;;
39044;SDS011;52192;52.002;5.956;2024-03-06T13:14:37;12.68;;;5.97;;
39044;SDS011;52192;52.002;5.956;2024-03-06T13:17:02;16.10;;;7.43;;
39044;SDS011;52192;52.002;5.956;2024-03-06T13:19:28;15.80;;;7.20;;
39044;SDS011;52192;52.002;5.956;2024-03-06T13:21:54;12.38;;;6.53;;
39044;SDS011;52192;52.002;5.956;2024-03-06T13:24:20;14.75;;;6.55;;
39044;SDS011;52192;52.002;5.956;2024-03-06T13:26:46;14.75;;;6.10;;
39044;SDS011;52192;52.002;5.956;2024-03-06T13:29:12;13.50;;;7.93;;
39044;SDS011;52192;52.002;5.956;2024-03-06T13:31:38;14.25;;;6.57;;
39044;SDS011;52192;52.002;5.956;2024-03-06T13:34:04;12.88;;;5.60;;
39044;SDS011;52192;52.002;5.956;2024-03-06T13:36:30;9.77;;;4.82;;
39044;SDS011;52192;52.002;5.956;2024-03-06T13:38:56;12.88;;;5.57;;
39044;SDS011;52192;52.002;5.956;2024-03-06T13:41:22;6.82;;;4.45;;
39044;SDS011;52192;52.002;5.956;2024-03-06T13:43:48;13.13;;;6.35;;
39044;SDS011;52192;52.002;5.956;2024-03-06T13:46:14;8.88;;;5.50;;
39044;SDS011;52192;52.002;5.956;2024-03-06T13:48:40;15.55;;;6.53;;
39044;SDS011;52192;52.002;5.956;2024-03-06T13:51:05;9.38;;;4.82;;
39044;SDS011;52192;52.002;5.956;2024-03-06T13:53:31;8.60;;;4.03;;
39044;SDS011;52192;52.002;5.956;2024-03-06T13:55:57;6.10;;;3.42;;
39044;SDS011;52192;52.002;5.956;2024-03-06T13:58:23;6.10;;;3.45;;
39044;SDS011;52192;52.002;5.956;2024-03-06T14:00:49;4.75;;;2.28;;
39044;SDS011;52192;52.002;5.956;2024-03-06T14:03:16;5.10;;;2.50;;
39044;SDS011;52192;52.002;5.956;2024-03-06T14:05:41;4.97;;;2.92;;
39044;SDS011;52192;52.002;5.956;2024-03-06T14:08:07;5.47;;;2.85;;
39044;SDS011;52192;52.002;5.956;2024-03-06T14:10:36;4.80;;;2.60;;
39044;SDS011;52192;52.002;5.956;2024-03-06T14:13:05;4.13;;;2.67;;
39044;SDS011;52192;52.002;5.956;2024-03-06T14:15:32;6.47;;;2.08;;
39044;SDS011;52192;52.002;5.956;2024-03-06T14:17:58;4.35;;;2.30;;
39044;SDS011;52192;52.002;5.956;2024-03-06T14:20:24;6.40;;;2.53;;
39044;SDS011;52192;52.002;5.956;2024-03-06T14:22:49;4.65;;;2.08;;
39044;SDS011;52192;52.002;5.956;2024-03-06T14:25:15;5.65;;;2.53;;
39044;SDS011;52192;52.002;5.956;2024-03-06T14:27:42;3.70;;;2.53;;
39044;SDS011;52192;52.002;5.956;2024-03-06T14:30:08;4.60;;;2.55;;
39044;SDS011;52192;52.002;5.956;2024-03-06T14:32:38;2.65;;;1.85;;
39044;SDS011;52192;52.002;5.956;2024-03-06T14:35:04;3.58;;;2.42;;
39044;SDS011;52192;52.002;5.956;2024-03-06T14:37:30;3.17;;;1.95;;
39044;SDS011;52192;52.002;5.956;2024-03-06T14:39:56;2.25;;;1.80;;
39044;SDS011;52192;52.002;5.956;2024-03-06T14:42:21;4.82;;;1.75;;
39044;SDS011;52192;52.002;5.956;2024-03-06T14:44:48;3.08;;;1.30;;
39044;SDS011;52192;52.002;5.956;2024-03-06T14:47:14;2.00;;;1.25;;
39044;SDS011;52192;52.002;5.956;2024-03-06T14:49:41;1.50;;;1.10;;